Terminal Aerodrome Forecast
Issued by NWS Oklahoma City, OK

Home | Current Version | Previous Version | Text Only | Print | Product List | Glossary On
Versions: 1 2 3 4 5 6 7 8 9 10 11 12 13
000
FTUS44 KOUN 030531
TAFOUN
TAF
KOUN 030531Z 0306/0406 VRB04KT P6SM SCT250
     FM031500 21007KT P6SM SCT250
      TEMPO 0319/0323 BKN040=

USA.gov is the U.S. government's official web portal to all federal, state and local government web resources and services.